Rankings de siempre
Mejores tiempos personales válidos de equipo a través de todos los eventos y temporadas. Cada equipo aparece una vez por división.
Busca por nombre y abre la página donde está clasificado este récord de división.
133,012 equipos clasificados
| Pos. | Pos. AG | Equipo | Nacionalidad | Categoría de edad | TiempoMejor tiempo | Diferencia |
|---|---|---|---|---|---|---|
| 128601 | #19603 | Benjamin Tan & Xueli CheeMAS · X 25-29 · AG #19603 | MAS | X 25-29 | 1:57:33 | +68:20 |
| 128602 | -- | Beatriz San José González & José Nicolás Castillo RuanoESP · X XU29 | ESP | X XU29 | 1:57:33 | +68:20 |
| 128603 | #17313 | Emma Hudsonsmith & Neil AsquithGBR · X 40-44 · AG #17313 | GBR | X 40-44 | 1:57:33 | +68:20 |
| 128604 | #45106 | Giulia Masciullo & Raffaele MalafronteITA · X 30-34 · AG #45106 | ITA | X 30-34 | 1:57:33 | +68:20 |
| 128605 | #4299 | Vicky Candlish & John BarretGBR · X 45-49 · AG #4299 | GBR | X 45-49 | 1:57:33 | +68:20 |
| 128606 | #19605 | Dallan Quigley & Jenny BalkoUSA · X 25-29 · AG #19605 | USA | X 25-29 | 1:57:34 | +68:21 |
| 128607 | #4300 | Claudia Estrada & Oscar OropezaMEX · X 45-49 · AG #4300 | MEX | X 45-49 | 1:57:34 | +68:21 |
| 128608 | #19606 | Mashud Ahmed & Lexandra RoigUSA · X 25-29 · AG #19606 | USA | X 25-29 | 1:57:34 | +68:21 |
| 128609 | #45107 | Elizabeth Copeland & Jefferey CopelandUSA · X 30-34 · AG #45107 | USA | X 30-34 | 1:57:34 | +68:21 |
| 128610 | -- | Daniel Kielliger & Nelleke RomijnNED · X XU29 | NED | X XU29 | 1:57:34 | +68:21 |
| 128611 | #45108 | Victor Guillermo Monsalvo Peña & Yuri Martínez ValenciaMEX · X 30-34 · AG #45108 | MEX | X 30-34 | 1:57:34 | +68:21 |
| 128612 | #523 | Espen Ødegaard & Kristin ØdegaardNOR · X 55-59 · AG #523 | NOR | X 55-59 | 1:57:34 | +68:21 |
| 128613 | #19607 | Ashwani Prabhakar & Simphy AgarwalIND · X 25-29 · AG #19607 | IND | X 25-29 | 1:57:34 | +68:21 |
| 128614 | #15855 | Yu Hsin Yang & Hanwei TsaiTPE · X 35-39 · AG #15855 | TPE | X 35-39 | 1:57:35 | +68:22 |
| 128615 | #17314 | Graeme Anderson & Alexis WebbGBR · X 40-44 · AG #17314 | GBR | X 40-44 | 1:57:35 | +68:22 |
| 128616 | #15856 | Sebastian Magee & Dewuan HarryUSA · X 35-39 · AG #15856 | USA | X 35-39 | 1:57:35 | +68:22 |
| 128617 | #45109 | Duangporn Tangsaengtham & Tanongsak YodsuTHA · X 30-34 · AG #45109 | THA | X 30-34 | 1:57:35 | +68:22 |
| 128618 | #19608 | Molly Ogden & Dylan PereraX 25-29 · AG #19608 | -- | X 25-29 | 1:57:36 | +68:23 |
| 128619 | #8765 | Emeline Boitet & Gabriel AndreFRA · X 16-24 · AG #8765 | FRA | X 16-24 | 1:57:36 | +68:23 |
| 128620 | -- | Shahed Bin Satter & Kanta BuranakittiX XU29 | -- | X XU29 | 1:57:36 | +68:23 |
| 128621 | #2959 | Susie Rivera & Joe CruzUSA · X 50-54 · AG #2959 | USA | X 50-54 | 1:57:36 | +68:23 |
| 128622 | #19609 | Clémence Marconnet & Kamel AkalaiFRA · X 25-29 · AG #19609 | FRA | X 25-29 | 1:57:36 | +68:23 |
| 128623 | #45110 | Monique Sotelo & Gabriel EgwuUSA · X 30-34 · AG #45110 | USA | X 30-34 | 1:57:36 | +68:23 |
| 128624 | #45111 | Cyril Dury & Nawelle DuryFRA · X 30-34 · AG #45111 | FRA | X 30-34 | 1:57:37 | +68:24 |
| 128625 | #17315 | Giovanni Zega & Valentina BortolamiITA · X 40-44 · AG #17315 | ITA | X 40-44 | 1:57:37 | +68:24 |
Página 5,145 de 5,321